sensor_id;sensor_type;location;lat;lon;timestamp;P1;durP1;ratioP1;P2;durP2;ratioP2
20185;SDS011;10252;48.792;8.582;2022-08-19T00:02:39;16.75;;;14.85;;
20185;SDS011;10252;48.792;8.582;2022-08-19T00:07:41;18.20;;;15.57;;
20185;SDS011;10252;48.792;8.582;2022-08-19T00:12:43;22.13;;;16.10;;
20185;SDS011;10252;48.792;8.582;2022-08-19T00:17:44;18.13;;;14.85;;
20185;SDS011;10252;48.792;8.582;2022-08-19T00:22:45;18.02;;;15.57;;
20185;SDS011;10252;48.792;8.582;2022-08-19T00:27:47;18.17;;;16.15;;
20185;SDS011;10252;48.792;8.582;2022-08-19T00:32:49;17.27;;;15.48;;
20185;SDS011;10252;48.792;8.582;2022-08-19T00:37:50;19.05;;;16.50;;
20185;SDS011;10252;48.792;8.582;2022-08-19T00:42:51;16.83;;;14.00;;
20185;SDS011;10252;48.792;8.582;2022-08-19T00:47:55;18.20;;;15.90;;
20185;SDS011;10252;48.792;8.582;2022-08-19T00:52:56;20.38;;;16.42;;
20185;SDS011;10252;48.792;8.582;2022-08-19T00:58:01;21.60;;;16.75;;
20185;SDS011;10252;48.792;8.582;2022-08-19T01:03:05;21.00;;;15.95;;
20185;SDS011;10252;48.792;8.582;2022-08-19T01:08:06;19.80;;;16.73;;
20185;SDS011;10252;48.792;8.582;2022-08-19T01:13:08;18.45;;;16.38;;
20185;SDS011;10252;48.792;8.582;2022-08-19T01:18:10;22.58;;;18.23;;
20185;SDS011;10252;48.792;8.582;2022-08-19T01:23:12;22.80;;;16.58;;
20185;SDS011;10252;48.792;8.582;2022-08-19T01:33:18;21.23;;;17.75;;
20185;SDS011;10252;48.792;8.582;2022-08-19T01:38:22;19.90;;;16.20;;
20185;SDS011;10252;48.792;8.582;2022-08-19T01:43:23;19.92;;;15.93;;
20185;SDS011;10252;48.792;8.582;2022-08-19T01:48:24;20.52;;;16.08;;
20185;SDS011;10252;48.792;8.582;2022-08-19T01:53:26;19.95;;;16.85;;
20185;SDS011;10252;48.792;8.582;2022-08-19T01:58:30;19.55;;;16.58;;
20185;SDS011;10252;48.792;8.582;2022-08-19T02:03:33;20.35;;;16.83;;
20185;SDS011;10252;48.792;8.582;2022-08-19T02:08:38;21.52;;;17.55;;
20185;SDS011;10252;48.792;8.582;2022-08-19T02:13:39;23.10;;;18.27;;
20185;SDS011;10252;48.792;8.582;2022-08-19T02:18:40;20.85;;;17.95;;
20185;SDS011;10252;48.792;8.582;2022-08-19T02:23:41;22.23;;;17.23;;
20185;SDS011;10252;48.792;8.582;2022-08-19T02:28:43;18.33;;;15.90;;
20185;SDS011;10252;48.792;8.582;2022-08-19T02:33:44;22.05;;;17.73;;
20185;SDS011;10252;48.792;8.582;2022-08-19T02:38:46;22.10;;;18.38;;
20185;SDS011;10252;48.792;8.582;2022-08-19T02:43:47;24.92;;;18.50;;
20185;SDS011;10252;48.792;8.582;2022-08-19T02:48:49;21.30;;;17.85;;
20185;SDS011;10252;48.792;8.582;2022-08-19T02:53:51;23.60;;;19.33;;
20185;SDS011;10252;48.792;8.582;2022-08-19T02:58:52;21.02;;;18.23;;
20185;SDS011;10252;48.792;8.582;2022-08-19T03:03:53;21.13;;;17.30;;
20185;SDS011;10252;48.792;8.582;2022-08-19T03:08:55;27.08;;;22.17;;
20185;SDS011;10252;48.792;8.582;2022-08-19T03:13:57;22.63;;;18.98;;
20185;SDS011;10252;48.792;8.582;2022-08-19T03:18:58;25.25;;;19.95;;
20185;SDS011;10252;48.792;8.582;2022-08-19T03:24:03;27.83;;;22.05;;
20185;SDS011;10252;48.792;8.582;2022-08-19T03:29:04;22.70;;;19.00;;
20185;SDS011;10252;48.792;8.582;2022-08-19T03:34:06;29.80;;;22.90;;
20185;SDS011;10252;48.792;8.582;2022-08-19T03:39:07;37.75;;;26.02;;
20185;SDS011;10252;48.792;8.582;2022-08-19T03:44:08;37.30;;;27.35;;
20185;SDS011;10252;48.792;8.582;2022-08-19T03:49:09;31.33;;;22.33;;
20185;SDS011;10252;48.792;8.582;2022-08-19T03:54:11;37.03;;;26.42;;
20185;SDS011;10252;48.792;8.582;2022-08-19T03:59:14;43.90;;;29.63;;
20185;SDS011;10252;48.792;8.582;2022-08-19T04:04:15;45.40;;;30.50;;
20185;SDS011;10252;48.792;8.582;2022-08-19T04:09:16;33.42;;;25.15;;
20185;SDS011;10252;48.792;8.582;2022-08-19T04:14:18;41.38;;;29.38;;
20185;SDS011;10252;48.792;8.582;2022-08-19T04:19:20;33.75;;;26.45;;
20185;SDS011;10252;48.792;8.582;2022-08-19T04:24:22;65.75;;;41.33;;
20185;SDS011;10252;48.792;8.582;2022-08-19T04:29:24;34.03;;;26.00;;
20185;SDS011;10252;48.792;8.582;2022-08-19T04:34:27;36.15;;;26.50;;
20185;SDS011;10252;48.792;8.582;2022-08-19T04:39:30;33.97;;;26.55;;
20185;SDS011;10252;48.792;8.582;2022-08-19T04:44:49;34.53;;;25.38;;
20185;SDS011;10252;48.792;8.582;2022-08-19T04:49:50;32.17;;;25.40;;
20185;SDS011;10252;48.792;8.582;2022-08-19T04:54:52;30.60;;;24.13;;
20185;SDS011;10252;48.792;8.582;2022-08-19T04:59:55;32.13;;;24.77;;
20185;SDS011;10252;48.792;8.582;2022-08-19T05:04:57;36.05;;;27.02;;
20185;SDS011;10252;48.792;8.582;2022-08-19T05:10:00;31.23;;;25.25;;
20185;SDS011;10252;48.792;8.582;2022-08-19T05:15:02;31.48;;;25.33;;
20185;SDS011;10252;48.792;8.582;2022-08-19T05:20:04;31.20;;;25.60;;
20185;SDS011;10252;48.792;8.582;2022-08-19T05:25:24;34.58;;;24.63;;
20185;SDS011;10252;48.792;8.582;2022-08-19T05:30:25;29.52;;;22.83;;
20185;SDS011;10252;48.792;8.582;2022-08-19T05:35:26;31.85;;;24.35;;
20185;SDS011;10252;48.792;8.582;2022-08-19T05:40:28;33.70;;;26.02;;
20185;SDS011;10252;48.792;8.582;2022-08-19T05:45:29;32.15;;;26.65;;
20185;SDS011;10252;48.792;8.582;2022-08-19T05:50:31;30.08;;;24.92;;
20185;SDS011;10252;48.792;8.582;2022-08-19T05:55:32;31.80;;;23.67;;
20185;SDS011;10252;48.792;8.582;2022-08-19T06:00:34;29.27;;;24.17;;
20185;SDS011;10252;48.792;8.582;2022-08-19T06:05:35;29.60;;;23.40;;
20185;SDS011;10252;48.792;8.582;2022-08-19T06:10:36;29.50;;;22.52;;
20185;SDS011;10252;48.792;8.582;2022-08-19T06:15:37;26.48;;;21.63;;
20185;SDS011;10252;48.792;8.582;2022-08-19T06:20:43;34.08;;;23.15;;
20185;SDS011;10252;48.792;8.582;2022-08-19T06:25:45;27.30;;;22.20;;
20185;SDS011;10252;48.792;8.582;2022-08-19T06:30:46;25.17;;;20.65;;
20185;SDS011;10252;48.792;8.582;2022-08-19T06:35:47;26.15;;;22.30;;
20185;SDS011;10252;48.792;8.582;2022-08-19T06:41:08;23.80;;;20.15;;
20185;SDS011;10252;48.792;8.582;2022-08-19T06:46:14;25.13;;;20.50;;
20185;SDS011;10252;48.792;8.582;2022-08-19T06:51:15;26.40;;;21.35;;
20185;SDS011;10252;48.792;8.582;2022-08-19T06:56:19;21.35;;;19.05;;
20185;SDS011;10252;48.792;8.582;2022-08-19T07:01:21;21.30;;;18.52;;
20185;SDS011;10252;48.792;8.582;2022-08-19T07:06:22;23.35;;;19.38;;
20185;SDS011;10252;48.792;8.582;2022-08-19T07:11:23;21.42;;;19.08;;
20185;SDS011;10252;48.792;8.582;2022-08-19T07:16:24;21.30;;;17.52;;
20185;SDS011;10252;48.792;8.582;2022-08-19T07:21:27;22.50;;;19.88;;
20185;SDS011;10252;48.792;8.582;2022-08-19T07:26:30;23.40;;;19.45;;
20185;SDS011;10252;48.792;8.582;2022-08-19T07:31:32;21.30;;;18.95;;
20185;SDS011;10252;48.792;8.582;2022-08-19T07:36:38;25.58;;;19.33;;
20185;SDS011;10252;48.792;8.582;2022-08-19T07:41:40;20.27;;;17.98;;
20185;SDS011;10252;48.792;8.582;2022-08-19T07:46:44;19.40;;;17.35;;
20185;SDS011;10252;48.792;8.582;2022-08-19T07:51:47;19.95;;;17.83;;
20185;SDS011;10252;48.792;8.582;2022-08-19T07:56:48;22.65;;;18.33;;
20185;SDS011;10252;48.792;8.582;2022-08-19T08:01:50;19.65;;;17.45;;
20185;SDS011;10252;48.792;8.582;2022-08-19T08:06:52;18.92;;;17.00;;
20185;SDS011;10252;48.792;8.582;2022-08-19T08:12:14;20.70;;;17.48;;
20185;SDS011;10252;48.792;8.582;2022-08-19T08:17:17;19.27;;;16.40;;
20185;SDS011;10252;48.792;8.582;2022-08-19T08:22:19;21.15;;;17.65;;
20185;SDS011;10252;48.792;8.582;2022-08-19T08:27:39;18.83;;;15.73;;
20185;SDS011;10252;48.792;8.582;2022-08-19T08:32:41;17.45;;;15.45;;
20185;SDS011;10252;48.792;8.582;2022-08-19T08:37:42;17.42;;;14.50;;
20185;SDS011;10252;48.792;8.582;2022-08-19T08:42:46;17.10;;;15.40;;
20185;SDS011;10252;48.792;8.582;2022-08-19T08:47:50;15.63;;;14.02;;
20185;SDS011;10252;48.792;8.582;2022-08-19T08:52:53;15.05;;;12.88;;
20185;SDS011;10252;48.792;8.582;2022-08-19T08:58:04;16.25;;;13.02;;
20185;SDS011;10252;48.792;8.582;2022-08-19T09:03:21;15.23;;;12.52;;
20185;SDS011;10252;48.792;8.582;2022-08-19T09:18:46;14.65;;;13.25;;
20185;SDS011;10252;48.792;8.582;2022-08-19T09:23:47;14.38;;;12.75;;
20185;SDS011;10252;48.792;8.582;2022-08-19T09:28:49;13.25;;;11.75;;
20185;SDS011;10252;48.792;8.582;2022-08-19T09:33:51;14.43;;;11.70;;
20185;SDS011;10252;48.792;8.582;2022-08-19T09:38:52;13.35;;;11.82;;
20185;SDS011;10252;48.792;8.582;2022-08-19T09:43:54;11.77;;;10.50;;
20185;SDS011;10252;48.792;8.582;2022-08-19T09:48:57;13.25;;;10.75;;
20185;SDS011;10252;48.792;8.582;2022-08-19T09:54:00;13.27;;;11.88;;
20185;SDS011;10252;48.792;8.582;2022-08-19T09:59:02;10.82;;;9.77;;
20185;SDS011;10252;48.792;8.582;2022-08-19T10:04:03;10.93;;;9.85;;
20185;SDS011;10252;48.792;8.582;2022-08-19T10:09:09;11.40;;;9.80;;
20185;SDS011;10252;48.792;8.582;2022-08-19T10:14:10;12.02;;;8.43;;
20185;SDS011;10252;48.792;8.582;2022-08-19T10:19:11;10.73;;;9.73;;
20185;SDS011;10252;48.792;8.582;2022-08-19T10:24:13;13.27;;;8.98;;
20185;SDS011;10252;48.792;8.582;2022-08-19T10:29:14;9.98;;;9.02;;
20185;SDS011;10252;48.792;8.582;2022-08-19T10:34:16;11.35;;;10.25;;
20185;SDS011;10252;48.792;8.582;2022-08-19T10:39:17;11.75;;;10.43;;
20185;SDS011;10252;48.792;8.582;2022-08-19T10:44:18;11.15;;;9.15;;
20185;SDS011;10252;48.792;8.582;2022-08-19T10:49:21;9.15;;;8.23;;
20185;SDS011;10252;48.792;8.582;2022-08-19T10:54:24;9.30;;;8.20;;
20185;SDS011;10252;48.792;8.582;2022-08-19T10:59:45;9.93;;;8.80;;
20185;SDS011;10252;48.792;8.582;2022-08-19T11:04:47;7.85;;;7.15;;
20185;SDS011;10252;48.792;8.582;2022-08-19T11:09:50;11.43;;;8.23;;
20185;SDS011;10252;48.792;8.582;2022-08-19T11:14:51;9.18;;;7.32;;
20185;SDS011;10252;48.792;8.582;2022-08-19T11:19:52;7.68;;;7.05;;
20185;SDS011;10252;48.792;8.582;2022-08-19T11:24:54;9.32;;;8.25;;
20185;SDS011;10252;48.792;8.582;2022-08-19T11:29:55;11.77;;;9.25;;
20185;SDS011;10252;48.792;8.582;2022-08-19T11:34:56;9.30;;;8.40;;
20185;SDS011;10252;48.792;8.582;2022-08-19T11:39:57;10.77;;;8.35;;
20185;SDS011;10252;48.792;8.582;2022-08-19T11:44:58;9.90;;;7.15;;
20185;SDS011;10252;48.792;8.582;2022-08-19T11:50:00;7.70;;;7.00;;
20185;SDS011;10252;48.792;8.582;2022-08-19T11:55:01;9.02;;;7.97;;
20185;SDS011;10252;48.792;8.582;2022-08-19T12:00:04;8.65;;;7.85;;
20185;SDS011;10252;48.792;8.582;2022-08-19T12:05:07;8.93;;;8.23;;
20185;SDS011;10252;48.792;8.582;2022-08-19T12:10:08;8.40;;;7.60;;
20185;SDS011;10252;48.792;8.582;2022-08-19T12:15:09;9.25;;;8.35;;
20185;SDS011;10252;48.792;8.582;2022-08-19T12:20:12;9.98;;;8.55;;
20185;SDS011;10252;48.792;8.582;2022-08-19T12:25:15;9.20;;;7.97;;
20185;SDS011;10252;48.792;8.582;2022-08-19T12:30:16;10.10;;;9.20;;
20185;SDS011;10252;48.792;8.582;2022-08-19T12:35:18;7.80;;;7.07;;
20185;SDS011;10252;48.792;8.582;2022-08-19T12:40:22;8.32;;;7.53;;
20185;SDS011;10252;48.792;8.582;2022-08-19T12:45:23;8.23;;;7.63;;
20185;SDS011;10252;48.792;8.582;2022-08-19T12:50:24;8.23;;;7.60;;
20185;SDS011;10252;48.792;8.582;2022-08-19T12:55:25;8.48;;;7.57;;
20185;SDS011;10252;48.792;8.582;2022-08-19T13:00:29;8.77;;;7.97;;
20185;SDS011;10252;48.792;8.582;2022-08-19T13:05:32;9.38;;;8.52;;
20185;SDS011;10252;48.792;8.582;2022-08-19T13:10:34;8.73;;;8.02;;
20185;SDS011;10252;48.792;8.582;2022-08-19T13:15:37;10.45;;;9.55;;
20185;SDS011;10252;48.792;8.582;2022-08-19T13:20:40;10.30;;;9.25;;
20185;SDS011;10252;48.792;8.582;2022-08-19T13:25:41;10.07;;;9.18;;
20185;SDS011;10252;48.792;8.582;2022-08-19T13:30:46;12.57;;;11.48;;
20185;SDS011;10252;48.792;8.582;2022-08-19T13:36:06;10.82;;;9.82;;
20185;SDS011;10252;48.792;8.582;2022-08-19T13:41:07;10.07;;;9.18;;
20185;SDS011;10252;48.792;8.582;2022-08-19T13:46:09;10.88;;;9.68;;
20185;SDS011;10252;48.792;8.582;2022-08-19T13:51:14;10.55;;;9.68;;
20185;SDS011;10252;48.792;8.582;2022-08-19T13:56:17;9.88;;;9.02;;
20185;SDS011;10252;48.792;8.582;2022-08-19T14:01:21;10.98;;;9.90;;
20185;SDS011;10252;48.792;8.582;2022-08-19T14:06:22;10.43;;;9.52;;
20185;SDS011;10252;48.792;8.582;2022-08-19T14:11:23;10.27;;;9.18;;
20185;SDS011;10252;48.792;8.582;2022-08-19T14:16:24;10.45;;;9.32;;
20185;SDS011;10252;48.792;8.582;2022-08-19T14:21:27;10.57;;;9.48;;
20185;SDS011;10252;48.792;8.582;2022-08-19T14:26:28;9.75;;;8.88;;
20185;SDS011;10252;48.792;8.582;2022-08-19T14:31:29;9.50;;;8.60;;
20185;SDS011;10252;48.792;8.582;2022-08-19T14:36:30;8.57;;;7.72;;
20185;SDS011;10252;48.792;8.582;2022-08-19T14:41:34;8.30;;;7.60;;
20185;SDS011;10252;48.792;8.582;2022-08-19T14:46:35;8.00;;;7.20;;
20185;SDS011;10252;48.792;8.582;2022-08-19T14:51:36;7.22;;;6.53;;
20185;SDS011;10252;48.792;8.582;2022-08-19T14:56:39;7.20;;;6.50;;
20185;SDS011;10252;48.792;8.582;2022-08-19T15:01:41;6.70;;;6.10;;
20185;SDS011;10252;48.792;8.582;2022-08-19T15:06:43;6.60;;;6.10;;
20185;SDS011;10252;48.792;8.582;2022-08-19T15:11:44;6.03;;;5.53;;
20185;SDS011;10252;48.792;8.582;2022-08-19T15:16:45;6.57;;;6.05;;
20185;SDS011;10252;48.792;8.582;2022-08-19T15:21:46;6.30;;;5.80;;
20185;SDS011;10252;48.792;8.582;2022-08-19T15:26:47;6.50;;;5.82;;
20185;SDS011;10252;48.792;8.582;2022-08-19T15:31:48;6.30;;;5.70;;
20185;SDS011;10252;48.792;8.582;2022-08-19T15:36:51;6.55;;;6.03;;
20185;SDS011;10252;48.792;8.582;2022-08-19T15:41:52;6.10;;;5.60;;
20185;SDS011;10252;48.792;8.582;2022-08-19T15:46:53;6.10;;;5.60;;
20185;SDS011;10252;48.792;8.582;2022-08-19T15:51:54;6.45;;;5.90;;
20185;SDS011;10252;48.792;8.582;2022-08-19T15:56:57;6.60;;;6.00;;
20185;SDS011;10252;48.792;8.582;2022-08-19T16:02:17;6.25;;;5.75;;
20185;SDS011;10252;48.792;8.582;2022-08-19T16:07:37;5.80;;;5.05;;
20185;SDS011;10252;48.792;8.582;2022-08-19T16:12:38;6.90;;;6.30;;
20185;SDS011;10252;48.792;8.582;2022-08-19T16:17:40;7.57;;;4.97;;
20185;SDS011;10252;48.792;8.582;2022-08-19T16:22:43;6.18;;;5.68;;
20185;SDS011;10252;48.792;8.582;2022-08-19T16:27:44;5.90;;;5.35;;
20185;SDS011;10252;48.792;8.582;2022-08-19T16:32:45;5.90;;;5.30;;
20185;SDS011;10252;48.792;8.582;2022-08-19T16:37:46;5.28;;;4.47;;
20185;SDS011;10252;48.792;8.582;2022-08-19T16:42:47;5.30;;;4.82;;
20185;SDS011;10252;48.792;8.582;2022-08-19T16:47:48;4.82;;;4.35;;
20185;SDS011;10252;48.792;8.582;2022-08-19T16:52:52;7.07;;;6.10;;
20185;SDS011;10252;48.792;8.582;2022-08-19T16:57:53;5.85;;;5.35;;
20185;SDS011;10252;48.792;8.582;2022-08-19T17:02:54;6.05;;;5.30;;
20185;SDS011;10252;48.792;8.582;2022-08-19T17:07:55;4.90;;;4.47;;
20185;SDS011;10252;48.792;8.582;2022-08-19T17:12:57;7.20;;;6.40;;
20185;SDS011;10252;48.792;8.582;2022-08-19T17:18:02;5.97;;;5.35;;
20185;SDS011;10252;48.792;8.582;2022-08-19T17:23:03;5.40;;;4.90;;
20185;SDS011;10252;48.792;8.582;2022-08-19T17:33:09;5.75;;;5.25;;
20185;SDS011;10252;48.792;8.582;2022-08-19T17:38:12;6.88;;;5.95;;
20185;SDS011;10252;48.792;8.582;2022-08-19T17:43:14;11.98;;;10.50;;
20185;SDS011;10252;48.792;8.582;2022-08-19T17:48:17;13.85;;;10.63;;
20185;SDS011;10252;48.792;8.582;2022-08-19T17:53:19;13.35;;;11.15;;
20185;SDS011;10252;48.792;8.582;2022-08-19T17:58:20;13.23;;;11.65;;
20185;SDS011;10252;48.792;8.582;2022-08-19T18:03:21;17.02;;;13.23;;
20185;SDS011;10252;48.792;8.582;2022-08-19T18:08:22;15.35;;;13.85;;
20185;SDS011;10252;48.792;8.582;2022-08-19T18:13:23;14.68;;;13.23;;
20185;SDS011;10252;48.792;8.582;2022-08-19T18:18:24;15.02;;;13.07;;
20185;SDS011;10252;48.792;8.582;2022-08-19T18:23:27;15.75;;;13.93;;
20185;SDS011;10252;48.792;8.582;2022-08-19T18:28:31;14.15;;;12.60;;
20185;SDS011;10252;48.792;8.582;2022-08-19T18:33:32;15.57;;;13.88;;
20185;SDS011;10252;48.792;8.582;2022-08-19T18:38:33;15.30;;;13.52;;
20185;SDS011;10252;48.792;8.582;2022-08-19T18:43:53;14.73;;;13.20;;
20185;SDS011;10252;48.792;8.582;2022-08-19T18:49:18;15.52;;;13.40;;
20185;SDS011;10252;48.792;8.582;2022-08-19T18:54:19;14.57;;;12.07;;
20185;SDS011;10252;48.792;8.582;2022-08-19T18:59:24;13.90;;;12.43;;
20185;SDS011;10252;48.792;8.582;2022-08-19T19:04:27;15.23;;;13.63;;
20185;SDS011;10252;48.792;8.582;2022-08-19T19:09:29;16.92;;;15.05;;
20185;SDS011;10252;48.792;8.582;2022-08-19T19:14:32;16.98;;;14.30;;
20185;SDS011;10252;48.792;8.582;2022-08-19T19:19:33;17.60;;;14.77;;
20185;SDS011;10252;48.792;8.582;2022-08-19T19:24:35;15.55;;;13.70;;
20185;SDS011;10252;48.792;8.582;2022-08-19T19:29:36;15.80;;;14.30;;
20185;SDS011;10252;48.792;8.582;2022-08-19T19:34:38;13.68;;;12.32;;
20185;SDS011;10252;48.792;8.582;2022-08-19T19:39:39;14.73;;;13.25;;
20185;SDS011;10252;48.792;8.582;2022-08-19T19:44:40;14.90;;;13.23;;
20185;SDS011;10252;48.792;8.582;2022-08-19T19:49:43;14.70;;;11.30;;
20185;SDS011;10252;48.792;8.582;2022-08-19T19:54:44;12.32;;;11.13;;
20185;SDS011;10252;48.792;8.582;2022-08-19T19:59:46;11.93;;;10.73;;
20185;SDS011;10252;48.792;8.582;2022-08-19T20:04:47;11.63;;;10.50;;
20185;SDS011;10252;48.792;8.582;2022-08-19T20:09:49;12.77;;;10.70;;
20185;SDS011;10252;48.792;8.582;2022-08-19T20:14:50;11.90;;;10.65;;
20185;SDS011;10252;48.792;8.582;2022-08-19T20:19:54;9.98;;;7.75;;
20185;SDS011;10252;48.792;8.582;2022-08-19T20:24:56;12.32;;;9.55;;
20185;SDS011;10252;48.792;8.582;2022-08-19T20:29:57;8.27;;;7.10;;
20185;SDS011;10252;48.792;8.582;2022-08-19T20:34:58;8.50;;;7.70;;
20185;SDS011;10252;48.792;8.582;2022-08-19T20:39:59;8.50;;;7.70;;
20185;SDS011;10252;48.792;8.582;2022-08-19T20:45:01;8.65;;;7.40;;
20185;SDS011;10252;48.792;8.582;2022-08-19T20:50:03;10.05;;;8.73;;
20185;SDS011;10252;48.792;8.582;2022-08-19T20:55:05;8.57;;;7.70;;
20185;SDS011;10252;48.792;8.582;2022-08-19T21:00:06;9.15;;;7.97;;
20185;SDS011;10252;48.792;8.582;2022-08-19T21:05:12;9.65;;;8.18;;
20185;SDS011;10252;48.792;8.582;2022-08-19T21:10:13;6.28;;;5.35;;
20185;SDS011;10252;48.792;8.582;2022-08-19T21:15:16;4.63;;;4.20;;
20185;SDS011;10252;48.792;8.582;2022-08-19T21:20:18;5.95;;;5.45;;
20185;SDS011;10252;48.792;8.582;2022-08-19T21:25:19;9.90;;;6.60;;
20185;SDS011;10252;48.792;8.582;2022-08-19T21:30:20;9.63;;;7.00;;
20185;SDS011;10252;48.792;8.582;2022-08-19T21:35:22;6.55;;;5.82;;
20185;SDS011;10252;48.792;8.582;2022-08-19T21:40:24;7.15;;;5.82;;
20185;SDS011;10252;48.792;8.582;2022-08-19T21:45:25;3.15;;;1.92;;
20185;SDS011;10252;48.792;8.582;2022-08-19T21:50:27;3.25;;;1.98;;
20185;SDS011;10252;48.792;8.582;2022-08-19T21:55:31;4.15;;;3.78;;
20185;SDS011;10252;48.792;8.582;2022-08-19T22:00:32;4.53;;;2.80;;
20185;SDS011;10252;48.792;8.582;2022-08-19T22:05:34;2.97;;;2.70;;
20185;SDS011;10252;48.792;8.582;2022-08-19T22:10:36;2.67;;;2.03;;
20185;SDS011;10252;48.792;8.582;2022-08-19T22:15:37;3.85;;;3.45;;
20185;SDS011;10252;48.792;8.582;2022-08-19T22:20:38;4.22;;;3.22;;
20185;SDS011;10252;48.792;8.582;2022-08-19T22:25:40;4.78;;;3.80;;
20185;SDS011;10252;48.792;8.582;2022-08-19T22:30:43;4.25;;;2.70;;
20185;SDS011;10252;48.792;8.582;2022-08-19T22:35:46;2.20;;;2.00;;
20185;SDS011;10252;48.792;8.582;2022-08-19T22:40:48;2.35;;;2.08;;
20185;SDS011;10252;48.792;8.582;2022-08-19T22:45:50;3.55;;;2.55;;
20185;SDS011;10252;48.792;8.582;2022-08-19T22:50:51;2.70;;;2.20;;
20185;SDS011;10252;48.792;8.582;2022-08-19T22:56:11;2.70;;;1.30;;
20185;SDS011;10252;48.792;8.582;2022-08-19T23:01:14;2.17;;;1.67;;
20185;SDS011;10252;48.792;8.582;2022-08-19T23:06:15;2.85;;;1.85;;
20185;SDS011;10252;48.792;8.582;2022-08-19T23:11:16;1.48;;;1.38;;
20185;SDS011;10252;48.792;8.582;2022-08-19T23:16:17;1.30;;;1.17;;
20185;SDS011;10252;48.792;8.582;2022-08-19T23:21:18;2.20;;;1.27;;
20185;SDS011;10252;48.792;8.582;2022-08-19T23:26:19;2.70;;;2.05;;
20185;SDS011;10252;48.792;8.582;2022-08-19T23:31:21;2.28;;;2.08;;
20185;SDS011;10252;48.792;8.582;2022-08-19T23:36:22;1.75;;;1.65;;
20185;SDS011;10252;48.792;8.582;2022-08-19T23:41:24;1.77;;;1.63;;
20185;SDS011;10252;48.792;8.582;2022-08-19T23:46:26;2.25;;;2.05;;
20185;SDS011;10252;48.792;8.582;2022-08-19T23:51:28;3.17;;;2.00;;
20185;SDS011;10252;48.792;8.582;2022-08-19T23:56:29;2.28;;;2.00;;
